Portada
METAR-TAF:

METAR-TAF

Aeropuertos :

Aeropuerto de Gibraltar

Gibraltar, Gibraltar

latitud: 36-09N, longitud: 005-21W, altitud: 5 m

Observación

El informe se hizo hace 1 hora y 8 minutos, a las 15:50 UTC
Viento 4 kt del este
Temperatura 25°C
Humedad 69%
Presión 1015 hPa
Visibilidad 10 km o más
Escasas nubes a una altura de 2500 ft

METAR: LXGB 151550Z 08004KT 9999 FEW025 25/19 Q1015 NOSIG

Hora: 18:58 (16:58 UTC)

Pronóstico

El informe se hizo hace 3 horas y 2 minutos, a las 13:56 UTC
Pronóstico válido del 15 a las 15 UTC al 15 a las 22 UTC
Viento 5 kt del este
Visibilidad 10 km o más
Escasas nubes a una altura de 3000 ft
Temporalmente
del 15 a las 19 UTC al 15 a las 22 UTC
Escasas nubes a una altura de 1000 ft
Nubes dispersas a una altura de 1800 ft

TAF: LXGB 151356Z 1515/1522 09005KT 9999 FEW030 TEMPO 1519/1522 FEW010 SCT018

Observaciones y pronósticos meteorológicos de más de 4000 aeropuertos (mensajes METAR y TAF).

Los puntos amarillos y rojos representan las estaciones disponibles.

Ponga el ratón en el punto deseado para ver el nombre de la estación.

Haga clic para ver las observaciones y los pronósticos meteorológicos.

Para cambiar el mapa : haga clic en los botones verdes con una cruz de color negro para hacer un zoom, en el botón verde con un guión para alejar o en las flechas verdes para mapas adyacentes.


METAR-TAF: